createdAt,value
2019-05-19T00:00:02.609Z,0.00
2019-05-19T00:01:02.602Z,0.00
2019-05-19T00:02:02.598Z,0.00
2019-05-19T00:03:02.608Z,0.00
2019-05-19T00:04:02.597Z,0.00
2019-05-19T00:05:02.598Z,0.00
2019-05-19T00:06:02.603Z,0.00
2019-05-19T00:07:02.593Z,0.00
2019-05-19T00:08:02.619Z,0.00
2019-05-19T00:09:02.593Z,0.00
2019-05-19T00:10:02.604Z,0.00
2019-05-19T00:11:02.587Z,0.00
2019-05-19T00:12:02.588Z,0.00
2019-05-19T00:13:02.588Z,0.00
2019-05-19T00:14:02.583Z,0.00
2019-05-19T00:15:02.582Z,0.00
2019-05-19T00:16:02.590Z,0.00
2019-05-19T00:17:02.581Z,0.00
2019-05-19T00:18:02.580Z,0.00
2019-05-19T00:19:02.631Z,0.00
2019-05-19T00:20:02.577Z,0.00
2019-05-19T00:21:02.575Z,0.00
2019-05-19T00:22:02.576Z,0.00
2019-05-19T00:23:02.581Z,0.00
2019-05-19T00:24:02.572Z,0.00
2019-05-19T00:25:02.570Z,0.00
2019-05-19T00:26:02.569Z,0.00
2019-05-19T00:27:02.569Z,0.00
2019-05-19T00:28:02.573Z,0.00
2019-05-19T00:29:02.567Z,0.00
2019-05-19T00:30:02.566Z,0.00
2019-05-19T00:31:02.564Z,0.00
2019-05-19T00:32:02.562Z,0.00
2019-05-19T00:33:02.560Z,0.00
2019-05-19T00:34:02.557Z,0.00
2019-05-19T00:35:02.559Z,0.00
2019-05-19T00:36:02.567Z,0.00
2019-05-19T00:37:02.552Z,0.00
2019-05-19T00:38:02.552Z,0.00
2019-05-19T00:39:02.551Z,0.00
2019-05-19T00:40:02.554Z,0.00
2019-05-19T00:41:02.548Z,0.00
2019-05-19T00:42:02.546Z,0.00
2019-05-19T00:43:02.545Z,0.00
2019-05-19T00:44:02.544Z,0.00
2019-05-19T00:45:02.542Z,0.00
2019-05-19T00:46:02.542Z,0.00
2019-05-19T00:47:02.552Z,0.00
2019-05-19T00:48:02.538Z,0.00
2019-05-19T00:49:02.536Z,0.00
2019-05-19T00:50:02.547Z,0.00
2019-05-19T00:51:02.541Z,0.00
2019-05-19T00:52:02.535Z,0.00
2019-05-19T00:53:02.528Z,0.00
2019-05-19T00:54:02.526Z,0.00
2019-05-19T00:55:02.527Z,0.00
2019-05-19T00:56:02.523Z,0.00
2019-05-19T00:57:02.523Z,0.00
2019-05-19T00:58:02.521Z,0.00
2019-05-19T00:59:02.520Z,0.00
2019-05-19T01:00:02.525Z,0.00
2019-05-19T01:01:02.515Z,0.00
2019-05-19T01:02:02.513Z,0.00
2019-05-19T01:03:02.512Z,0.00
2019-05-19T01:04:02.512Z,0.00
2019-05-19T01:05:02.507Z,0.00
2019-05-19T01:06:02.506Z,0.00
2019-05-19T01:07:02.505Z,0.00
2019-05-19T01:08:02.509Z,0.00
2019-05-19T01:09:02.501Z,0.00
2019-05-19T01:10:02.500Z,0.00
2019-05-19T01:11:02.543Z,0.00
2019-05-19T01:12:02.497Z,0.00
2019-05-19T01:13:02.517Z,0.00
2019-05-19T01:14:02.493Z,0.00
2019-05-19T01:15:02.491Z,0.00
2019-05-19T01:16:02.489Z,0.00
2019-05-19T01:17:02.572Z,0.00
2019-05-19T01:18:02.485Z,0.00
2019-05-19T01:19:02.488Z,0.00
2019-05-19T01:20:02.486Z,0.00
2019-05-19T01:21:02.480Z,0.00
2019-05-19T01:22:02.483Z,0.00
2019-05-19T01:23:02.477Z,0.00
2019-05-19T01:24:02.476Z,0.00
2019-05-19T01:25:02.474Z,0.00
2019-05-19T01:26:02.473Z,0.00
2019-05-19T01:27:02.470Z,0.00
2019-05-19T01:28:02.472Z,0.00
2019-05-19T01:29:02.467Z,0.00
2019-05-19T01:30:02.467Z,0.00
2019-05-19T01:31:02.467Z,0.00
2019-05-19T01:32:02.461Z,0.00
2019-05-19T01:33:02.463Z,0.00
2019-05-19T01:34:02.458Z,0.00
2019-05-19T01:35:02.456Z,0.00
2019-05-19T01:36:02.458Z,0.00
2019-05-19T01:37:02.454Z,0.00
2019-05-19T01:38:02.452Z,0.00
2019-05-19T01:39:02.449Z,0.00
2019-05-19T01:40:02.603Z,0.00
2019-05-19T01:41:02.445Z,0.00
2019-05-19T01:42:02.444Z,0.00
2019-05-19T01:43:02.444Z,0.00
2019-05-19T01:44:02.440Z,0.00
2019-05-19T01:45:02.438Z,0.00
2019-05-19T01:46:02.437Z,0.00
2019-05-19T01:47:02.435Z,0.00
2019-05-19T01:48:02.436Z,0.00
2019-05-19T01:49:02.432Z,0.00
2019-05-19T01:50:16.943Z,0.00
2019-05-19T01:51:02.428Z,0.00
2019-05-19T01:52:02.429Z,0.00
2019-05-19T01:53:02.423Z,0.00
2019-05-19T01:54:02.442Z,0.00
2019-05-19T01:55:02.420Z,0.00
2019-05-19T01:56:02.418Z,0.00
2019-05-19T01:57:02.417Z,0.00
2019-05-19T01:58:02.415Z,0.00
2019-05-19T01:59:02.415Z,0.00
2019-05-19T02:00:03.124Z,0.00
2019-05-19T02:01:02.409Z,0.00
2019-05-19T02:02:02.407Z,0.00
2019-05-19T02:03:02.412Z,0.00
2019-05-19T02:04:02.403Z,0.00
2019-05-19T02:05:02.407Z,0.00
2019-05-19T02:06:02.400Z,0.00
2019-05-19T02:07:02.404Z,0.00
2019-05-19T02:08:02.397Z,0.00
2019-05-19T02:09:02.396Z,0.00
2019-05-19T02:10:02.575Z,0.00
2019-05-19T02:11:02.398Z,0.00
2019-05-19T02:12:02.393Z,0.00
2019-05-19T02:13:05.019Z,0.00
2019-05-19T02:14:02.387Z,0.00
2019-05-19T02:15:02.384Z,0.00
2019-05-19T02:16:02.384Z,0.00
2019-05-19T02:17:02.380Z,0.00
2019-05-19T02:18:02.382Z,0.00
2019-05-19T02:19:02.507Z,0.00
2019-05-19T02:20:02.391Z,0.00
2019-05-19T02:21:02.473Z,0.00
2019-05-19T02:22:02.368Z,0.00
2019-05-19T02:23:02.371Z,0.00
2019-05-19T02:24:02.447Z,0.00
2019-05-19T02:25:02.363Z,0.00
2019-05-19T02:26:02.361Z,0.00
2019-05-19T02:27:02.359Z,0.00
2019-05-19T02:28:02.377Z,0.00
2019-05-19T02:29:02.357Z,0.00
2019-05-19T02:30:02.695Z,0.00
2019-05-19T02:31:02.368Z,0.00
2019-05-19T02:32:02.349Z,0.00
2019-05-19T02:33:02.349Z,0.00
2019-05-19T02:34:02.346Z,0.00
2019-05-19T02:35:02.349Z,0.00
2019-05-19T02:36:02.340Z,0.00
2019-05-19T02:37:02.358Z,0.00
2019-05-19T02:38:02.338Z,0.00
2019-05-19T02:39:02.340Z,0.00
2019-05-19T02:40:02.332Z,0.00
2019-05-19T02:41:02.342Z,0.00
2019-05-19T02:42:02.335Z,0.00
2019-05-19T02:43:02.336Z,0.00
2019-05-19T02:44:02.326Z,0.00
2019-05-19T02:45:02.321Z,0.00
2019-05-19T02:46:02.327Z,0.00
2019-05-19T02:47:02.316Z,0.00
2019-05-19T02:48:02.316Z,0.00
2019-05-19T02:49:02.316Z,0.00
2019-05-19T02:50:02.307Z,0.00
2019-05-19T02:51:02.307Z,0.00
2019-05-19T02:52:02.305Z,0.00
2019-05-19T02:53:02.309Z,0.00
2019-05-19T02:54:02.302Z,0.00
2019-05-19T02:55:02.298Z,4.00
2019-05-19T02:56:02.300Z,4.00
2019-05-19T02:57:02.294Z,0.00
2019-05-19T02:58:02.290Z,0.00
2019-05-19T02:59:02.293Z,4.00
2019-05-19T03:00:02.286Z,4.00
2019-05-19T03:01:02.285Z,0.00
2019-05-19T03:02:02.329Z,4.00
2019-05-19T03:03:02.281Z,4.00
2019-05-19T03:04:02.276Z,4.00
2019-05-19T03:05:02.274Z,4.00
2019-05-19T03:06:02.270Z,8.00
2019-05-19T03:07:02.275Z,8.00
2019-05-19T03:08:02.270Z,8.00
2019-05-19T03:09:02.264Z,12.00
2019-05-19T03:10:02.275Z,12.00
2019-05-19T03:11:02.265Z,16.00
2019-05-19T03:12:02.255Z,12.00
2019-05-19T03:13:02.255Z,16.00
2019-05-19T03:14:02.312Z,20.00
2019-05-19T03:15:02.250Z,20.00
2019-05-19T03:16:02.246Z,24.00
2019-05-19T03:17:02.243Z,28.00
2019-05-19T03:18:02.256Z,32.00
2019-05-19T03:19:02.240Z,36.00
2019-05-19T03:20:02.237Z,44.00
2019-05-19T03:21:11.244Z,48.00
2019-05-19T03:22:02.231Z,48.00
2019-05-19T03:23:02.231Z,56.00
2019-05-19T03:24:02.227Z,60.00
2019-05-19T03:25:02.227Z,68.00
2019-05-19T03:26:02.222Z,72.00
2019-05-19T03:27:02.224Z,76.00
2019-05-19T03:28:02.216Z,80.00
2019-05-19T03:29:02.217Z,88.00
2019-05-19T03:30:02.216Z,92.00
2019-05-19T03:31:02.212Z,104.00
2019-05-19T03:32:02.249Z,112.00
2019-05-19T03:33:02.239Z,116.00
2019-05-19T03:34:02.218Z,128.00
2019-05-19T03:35:02.296Z,136.00
2019-05-19T03:36:02.202Z,148.00
2019-05-19T03:37:02.197Z,160.00
2019-05-19T03:38:02.193Z,176.00
2019-05-19T03:39:02.198Z,188.00
2019-05-19T03:40:02.203Z,208.00
2019-05-19T03:41:02.190Z,220.00
2019-05-19T03:42:02.185Z,236.00
2019-05-19T03:43:02.180Z,252.00
2019-05-19T03:44:02.177Z,264.00
2019-05-19T03:45:02.185Z,284.00
2019-05-19T03:46:02.184Z,304.00
2019-05-19T03:47:02.168Z,328.00
2019-05-19T03:48:02.167Z,352.00
2019-05-19T03:49:02.164Z,380.00
2019-05-19T03:50:02.159Z,408.00
2019-05-19T03:51:02.166Z,436.00
2019-05-19T03:52:02.155Z,464.00
2019-05-19T03:53:02.159Z,496.00
2019-05-19T03:54:02.151Z,528.00
2019-05-19T03:55:02.155Z,560.00
2019-05-19T03:56:02.150Z,592.00
2019-05-19T03:57:02.158Z,628.00
2019-05-19T03:58:02.142Z,660.00
2019-05-19T03:59:02.163Z,696.00
2019-05-19T04:00:02.146Z,732.00
2019-05-19T04:01:02.143Z,768.00
2019-05-19T04:02:02.151Z,808.00
2019-05-19T04:03:02.128Z,852.00
2019-05-19T04:04:02.125Z,896.00
2019-05-19T04:05:02.126Z,948.00
2019-05-19T04:06:02.130Z,992.00
2019-05-19T04:07:02.117Z,1044.00
2019-05-19T04:08:02.117Z,1088.00
2019-05-19T04:09:02.113Z,1132.00
2019-05-19T04:10:02.111Z,1164.00
2019-05-19T04:11:02.108Z,1196.00
2019-05-19T04:12:02.106Z,1220.00
2019-05-19T04:13:02.130Z,1248.00
2019-05-19T04:14:02.104Z,1276.00
2019-05-19T04:15:02.104Z,1300.00
2019-05-19T04:16:02.102Z,1332.00
2019-05-19T04:17:02.094Z,1364.00
2019-05-19T04:18:02.090Z,1388.00
2019-05-19T04:19:02.099Z,1420.00
2019-05-19T04:20:02.086Z,1452.00
2019-05-19T04:21:02.084Z,1488.00
2019-05-19T04:22:02.086Z,1532.00
2019-05-19T04:23:02.088Z,1576.00
2019-05-19T04:24:02.077Z,1628.00
2019-05-19T04:25:02.075Z,1692.00
2019-05-19T04:26:02.076Z,1768.00
2019-05-19T04:27:02.070Z,1840.00
2019-05-19T04:28:02.070Z,1928.00
2019-05-19T04:29:02.067Z,2020.00
2019-05-19T04:30:02.063Z,2124.00
2019-05-19T04:31:02.060Z,2232.00
2019-05-19T04:32:02.057Z,2332.00
2019-05-19T04:33:02.057Z,2424.00
2019-05-19T04:34:02.057Z,2504.00
2019-05-19T04:35:02.051Z,2568.00
2019-05-19T04:36:02.050Z,2628.00
2019-05-19T04:37:02.048Z,2672.00
2019-05-19T04:38:02.044Z,2708.00
2019-05-19T04:39:02.046Z,2732.00
2019-05-19T04:40:02.040Z,2736.00
2019-05-19T04:41:02.039Z,2744.00
2019-05-19T04:42:02.034Z,2764.00
2019-05-19T04:43:02.036Z,2776.00
2019-05-19T04:44:02.035Z,2800.00
2019-05-19T04:45:02.031Z,2848.00
2019-05-19T04:46:02.051Z,2916.00
2019-05-19T04:47:02.026Z,3004.00
2019-05-19T04:48:02.024Z,3112.00
2019-05-19T04:49:02.023Z,3228.00
2019-05-19T04:50:02.024Z,3344.00
2019-05-19T04:51:02.019Z,3472.00
2019-05-19T04:52:06.584Z,3624.00
2019-05-19T04:53:02.014Z,3776.00
2019-05-19T04:54:02.012Z,3912.00
2019-05-19T04:55:02.010Z,4036.00
2019-05-19T04:56:02.011Z,4084.00
2019-05-19T04:57:02.006Z,4112.00
2019-05-19T04:58:02.013Z,4140.00
2019-05-19T04:59:02.005Z,4200.00
2019-05-19T05:00:02.002Z,4252.00
2019-05-19T05:01:01.998Z,4320.00
2019-05-19T05:02:01.998Z,4368.00
2019-05-19T05:03:02.001Z,4428.00
2019-05-19T05:04:01.995Z,4468.00
2019-05-19T05:05:02.011Z,4488.00
2019-05-19T05:06:01.990Z,4508.00
2019-05-19T05:07:01.989Z,4544.00
2019-05-19T05:08:01.986Z,4588.00
2019-05-19T05:09:01.987Z,4608.00
2019-05-19T05:10:01.982Z,4612.00
2019-05-19T05:11:01.981Z,4636.00
2019-05-19T05:12:01.982Z,4680.00
2019-05-19T05:13:01.981Z,4736.00
2019-05-19T05:14:01.977Z,4804.00
2019-05-19T05:15:02.012Z,4864.00
2019-05-19T05:16:02.003Z,4928.00
2019-05-19T05:17:01.972Z,5008.00
2019-05-19T05:18:01.970Z,5104.00
2019-05-19T05:19:01.983Z,5116.00
2019-05-19T05:20:01.968Z,5288.00
2019-05-19T05:21:01.966Z,5380.00
2019-05-19T05:22:01.964Z,5484.00
2019-05-19T05:23:01.964Z,5588.00
2019-05-19T05:24:01.963Z,5680.00
2019-05-19T05:25:01.968Z,5744.00
2019-05-19T05:26:01.962Z,5804.00
2019-05-19T05:27:01.983Z,5880.00
2019-05-19T05:28:01.958Z,5960.00
2019-05-19T05:29:01.960Z,6012.00
2019-05-19T05:30:01.969Z,6044.00
2019-05-19T05:31:01.955Z,6076.00
2019-05-19T05:32:01.955Z,6120.00
2019-05-19T05:33:01.954Z,6184.00
2019-05-19T05:34:01.952Z,6244.00
2019-05-19T05:35:01.951Z,6284.00
2019-05-19T05:36:01.949Z,6304.00
2019-05-19T05:37:01.952Z,6308.00
2019-05-19T05:38:01.950Z,6328.00
2019-05-19T05:39:01.950Z,6356.00
2019-05-19T05:40:01.961Z,6392.00
2019-05-19T05:41:01.948Z,6424.00
2019-05-19T05:42:01.954Z,6444.00
2019-05-19T05:43:01.971Z,6464.00
2019-05-19T05:44:01.949Z,6492.00
2019-05-19T05:45:01.944Z,6540.00
2019-05-19T05:46:01.953Z,6588.00
2019-05-19T05:47:01.945Z,6708.00
2019-05-19T05:48:02.005Z,6884.00
2019-05-19T05:49:01.947Z,7084.00
2019-05-19T05:50:01.960Z,7244.00
2019-05-19T05:51:01.942Z,7400.00
2019-05-19T05:52:01.943Z,7632.00
2019-05-19T05:53:01.955Z,7904.00
2019-05-19T05:54:01.941Z,8124.00
2019-05-19T05:55:01.944Z,8236.00
2019-05-19T05:56:01.944Z,8324.00
2019-05-19T05:57:01.944Z,8372.00
2019-05-19T05:58:01.941Z,8576.00
2019-05-19T05:59:01.942Z,8720.00
2019-05-19T06:00:01.942Z,8820.00
2019-05-19T06:01:01.943Z,8888.00
2019-05-19T06:02:01.944Z,8992.00
2019-05-19T06:03:01.943Z,9092.00
2019-05-19T06:04:01.944Z,9188.00
2019-05-19T06:05:01.944Z,9220.00
2019-05-19T06:06:01.946Z,9232.00
2019-05-19T06:07:01.945Z,9300.00
2019-05-19T06:08:01.945Z,9336.00
2019-05-19T06:09:01.947Z,9300.00
2019-05-19T06:10:01.946Z,9244.00
2019-05-19T06:11:01.946Z,9132.00
2019-05-19T06:12:01.948Z,8996.00
2019-05-19T06:13:01.950Z,8924.00
2019-05-19T06:14:01.948Z,8932.00
2019-05-19T06:15:01.952Z,8944.00
2019-05-19T06:16:01.950Z,8932.00
2019-05-19T06:17:01.952Z,8864.00
2019-05-19T06:18:01.953Z,8796.00
2019-05-19T06:19:01.952Z,8824.00
2019-05-19T06:20:02.061Z,8912.00
2019-05-19T06:21:01.957Z,8976.00
2019-05-19T06:22:01.956Z,8940.00
2019-05-19T06:23:01.961Z,8880.00
2019-05-19T06:24:01.960Z,8836.00
2019-05-19T06:25:01.962Z,8840.00
2019-05-19T06:26:01.972Z,8888.00
2019-05-19T06:27:01.963Z,8968.00
2019-05-19T06:28:01.965Z,9072.00
2019-05-19T06:29:02.006Z,9152.00
2019-05-19T06:30:01.967Z,9188.00
2019-05-19T06:31:01.969Z,9216.00
2019-05-19T06:32:01.970Z,9280.00
2019-05-19T06:33:01.974Z,9388.00
2019-05-19T06:34:01.975Z,9476.00
2019-05-19T06:35:02.148Z,9512.00
2019-05-19T06:36:01.987Z,9496.00
2019-05-19T06:37:02.072Z,9508.00
2019-05-19T06:38:02.183Z,9560.00
2019-05-19T06:39:01.995Z,9600.00
2019-05-19T06:40:01.998Z,9696.00
2019-05-19T06:41:01.992Z,9868.00
2019-05-19T06:42:01.990Z,10016.00
2019-05-19T06:43:01.991Z,10152.00
2019-05-19T06:44:03.445Z,10256.00
2019-05-19T06:45:01.994Z,10388.00
2019-05-19T06:46:01.995Z,10560.00
2019-05-19T06:47:02.001Z,10712.00
2019-05-19T06:48:02.009Z,10968.00
2019-05-19T06:49:02.011Z,11236.00
2019-05-19T06:50:02.221Z,11528.00
2019-05-19T06:51:02.011Z,11904.00
2019-05-19T06:52:02.012Z,12284.00
2019-05-19T06:53:13.274Z,12556.00
2019-05-19T06:54:02.012Z,12656.00
2019-05-19T06:55:02.015Z,12532.00
2019-05-19T06:56:02.020Z,12288.00
2019-05-19T06:57:02.020Z,12032.00
2019-05-19T06:58:02.027Z,11768.00
2019-05-19T06:59:02.196Z,11140.00
2019-05-19T07:00:02.027Z,10724.00
2019-05-19T07:01:02.031Z,10352.00
2019-05-19T07:02:02.032Z,9904.00
2019-05-19T07:03:02.035Z,9572.00
2019-05-19T07:04:02.049Z,9352.00
2019-05-19T07:05:02.050Z,9272.00
2019-05-19T07:06:02.043Z,9248.00
2019-05-19T07:07:02.066Z,9300.00
2019-05-19T07:08:02.049Z,9376.00
2019-05-19T07:09:02.051Z,9584.00
2019-05-19T07:10:02.059Z,9816.00
2019-05-19T07:11:02.055Z,10068.00
2019-05-19T07:12:02.064Z,10444.00
2019-05-19T07:13:02.065Z,10848.00
2019-05-19T07:14:03.032Z,11032.00
2019-05-19T07:15:02.068Z,11012.00
2019-05-19T07:16:02.077Z,10876.00
2019-05-19T07:17:02.079Z,10816.00
2019-05-19T07:18:02.075Z,10796.00
2019-05-19T07:19:02.083Z,10796.00
2019-05-19T07:20:02.106Z,10804.00
2019-05-19T07:21:02.086Z,10740.00
2019-05-19T07:22:02.087Z,10536.00
2019-05-19T07:23:02.092Z,10268.00
2019-05-19T07:24:02.094Z,10060.00
2019-05-19T07:25:02.097Z,9908.00
2019-05-19T07:26:02.100Z,9868.00
2019-05-19T07:27:02.101Z,9896.00
2019-05-19T07:28:02.105Z,10052.00
2019-05-19T07:29:02.108Z,10180.00
2019-05-19T07:30:02.143Z,10316.00
2019-05-19T07:31:02.422Z,10580.00
2019-05-19T07:32:02.178Z,11132.00
2019-05-19T07:33:02.124Z,11744.00
2019-05-19T07:34:02.170Z,11640.00
2019-05-19T07:35:02.126Z,11172.00
2019-05-19T07:36:02.130Z,10852.00
2019-05-19T07:37:02.134Z,11168.00
2019-05-19T07:38:02.143Z,14340.00
2019-05-19T07:39:02.139Z,13620.00
2019-05-19T07:40:02.144Z,15208.00
2019-05-19T07:41:02.149Z,17408.00
2019-05-19T07:42:02.150Z,13752.00
2019-05-19T07:43:02.154Z,13132.00
2019-05-19T07:44:02.156Z,21184.00
2019-05-19T07:45:02.161Z,37600.00
2019-05-19T07:46:02.162Z,41184.00
2019-05-19T07:47:02.166Z,36480.00
2019-05-19T07:48:02.172Z,40704.00
2019-05-19T07:49:02.174Z,33536.00
2019-05-19T07:50:02.178Z,26976.00
2019-05-19T07:51:02.210Z,32864.00
2019-05-19T07:52:02.188Z,47168.00
2019-05-19T07:53:02.204Z,58656.00
2019-05-19T07:54:02.197Z,59488.00
2019-05-19T07:55:02.207Z,60544.00
2019-05-19T07:56:02.209Z,54176.00
2019-05-19T07:57:02.216Z,60864.00
2019-05-19T07:58:02.218Z,59072.00
2019-05-19T07:59:02.225Z,51488.00
2019-05-19T08:00:02.304Z,49920.00
2019-05-19T08:01:02.239Z,51776.00
2019-05-19T08:02:02.247Z,49152.00
2019-05-19T08:03:02.253Z,52320.00
2019-05-19T08:04:02.259Z,56480.00
2019-05-19T08:05:02.267Z,58912.00
2019-05-19T08:06:02.434Z,60096.00
2019-05-19T08:07:02.281Z,58528.00
2019-05-19T08:08:02.291Z,58944.00
2019-05-19T08:09:02.298Z,64480.00
2019-05-19T08:10:02.320Z,52960.00
2019-05-19T08:11:02.318Z,54432.00
2019-05-19T08:12:02.328Z,46336.00
2019-05-19T08:13:02.346Z,39840.00
2019-05-19T08:14:02.343Z,38080.00
2019-05-19T08:15:02.366Z,41536.00
2019-05-19T08:16:02.364Z,37344.00
2019-05-19T08:17:02.377Z,34464.00
2019-05-19T08:18:02.382Z,32288.00
2019-05-19T08:19:02.395Z,32224.00
2019-05-19T08:20:02.404Z,39552.00
2019-05-19T08:21:02.413Z,39488.00
2019-05-19T08:22:02.470Z,43264.00
2019-05-19T08:23:02.432Z,43520.00
2019-05-19T08:24:02.476Z,42816.00
2019-05-19T08:25:02.452Z,40160.00
2019-05-19T08:26:02.460Z,40128.00
2019-05-19T08:27:02.491Z,32960.00
2019-05-19T08:28:08.356Z,34752.00
2019-05-19T08:29:02.491Z,41120.00
2019-05-19T08:30:02.502Z,47680.00
2019-05-19T08:31:02.511Z,48128.00
2019-05-19T08:32:02.522Z,53024.00
2019-05-19T08:33:02.532Z,34912.00
2019-05-19T08:34:02.552Z,37568.00
2019-05-19T08:35:04.347Z,39648.00
2019-05-19T08:36:02.562Z,41376.00
2019-05-19T08:37:02.594Z,44544.00
2019-05-19T08:38:02.583Z,48096.00
2019-05-19T08:39:02.592Z,54624.00
2019-05-19T08:40:02.603Z,64992.00
2019-05-19T08:41:02.634Z,74688.00
2019-05-19T08:42:02.624Z,66464.00
2019-05-19T08:43:02.640Z,73216.00
2019-05-19T08:44:02.648Z,69568.00
2019-05-19T08:45:02.657Z,66944.00
2019-05-19T08:46:02.672Z,66944.00
2019-05-19T08:47:02.677Z,61984.00
2019-05-19T08:48:02.690Z,57600.00
2019-05-19T08:49:02.701Z,42944.00
2019-05-19T08:50:02.712Z,32512.00
2019-05-19T08:51:02.725Z,30656.00
2019-05-19T08:52:02.740Z,33280.00
2019-05-19T08:53:02.831Z,31840.00
2019-05-19T08:54:13.898Z,34400.00
2019-05-19T08:55:02.772Z,44832.00
2019-05-19T08:56:02.784Z,53568.00
2019-05-19T08:57:02.805Z,54432.00
2019-05-19T08:58:02.846Z,50272.00
2019-05-19T08:59:02.820Z,24800.00
2019-05-19T09:00:02.832Z,26144.00
2019-05-19T09:01:02.845Z,29696.00
2019-05-19T09:02:02.858Z,40832.00
2019-05-19T09:03:03.183Z,41696.00
2019-05-19T09:04:02.879Z,36352.00
2019-05-19T09:05:02.891Z,31008.00
2019-05-19T09:06:02.909Z,42816.00
2019-05-19T09:07:02.916Z,56032.00
2019-05-19T09:08:02.927Z,63840.00
2019-05-19T09:09:02.943Z,61888.00
2019-05-19T09:10:02.950Z,60704.00
2019-05-19T09:11:02.962Z,63520.00
2019-05-19T09:12:02.987Z,62560.00
2019-05-19T09:13:02.986Z,65376.00
2019-05-19T09:14:02.997Z,63808.00
2019-05-19T09:15:03.010Z,55904.00
2019-05-19T09:16:03.022Z,58112.00
2019-05-19T09:17:03.281Z,59936.00
2019-05-19T09:18:03.050Z,69088.00
2019-05-19T09:19:03.059Z,71296.00
2019-05-19T09:20:03.141Z,61600.00
2019-05-19T09:21:03.085Z,44896.00
2019-05-19T09:22:03.098Z,46816.00
2019-05-19T09:23:03.143Z,34336.00
2019-05-19T09:24:03.138Z,33280.00
2019-05-19T09:25:03.194Z,41696.00
2019-05-19T09:26:03.153Z,34976.00
2019-05-19T09:27:03.168Z,25472.00
2019-05-19T09:28:03.178Z,23424.00
2019-05-19T09:29:03.190Z,24448.00
2019-05-19T09:30:03.204Z,23520.00
2019-05-19T09:31:03.221Z,20032.00
2019-05-19T09:32:06.459Z,21856.00
2019-05-19T09:33:03.283Z,18624.00
2019-05-19T09:34:03.259Z,17024.00
2019-05-19T09:35:03.272Z,16768.00
2019-05-19T09:36:03.286Z,18624.00
2019-05-19T09:37:03.299Z,20064.00
2019-05-19T09:38:03.310Z,20928.00
2019-05-19T09:39:03.323Z,22752.00
2019-05-19T09:40:03.336Z,24576.00
2019-05-19T09:41:03.355Z,22336.00
2019-05-19T09:42:03.365Z,22880.00
2019-05-19T09:43:03.397Z,29568.00
2019-05-19T09:44:03.389Z,31488.00
2019-05-19T09:45:03.400Z,37152.00
2019-05-19T09:46:03.413Z,38464.00
2019-05-19T09:47:03.426Z,35840.00
2019-05-19T09:48:03.439Z,32096.00
2019-05-19T09:49:03.452Z,27616.00
2019-05-19T09:50:03.467Z,22848.00
2019-05-19T09:51:03.478Z,19552.00
2019-05-19T09:52:03.491Z,23328.00
2019-05-19T09:53:03.542Z,26080.00
2019-05-19T09:54:03.518Z,23584.00
2019-05-19T09:55:03.535Z,21920.00
2019-05-19T09:56:03.544Z,23552.00
2019-05-19T09:57:03.560Z,25952.00
2019-05-19T09:58:03.570Z,26688.00
2019-05-19T09:59:03.585Z,26496.00
2019-05-19T10:00:03.598Z,24544.00
2019-05-19T10:01:03.616Z,24288.00
2019-05-19T10:02:03.624Z,24576.00
2019-05-19T10:03:03.920Z,23584.00
2019-05-19T10:04:05.386Z,22528.00
2019-05-19T10:05:03.664Z,20128.00
2019-05-19T10:06:03.679Z,15508.00
2019-05-19T10:07:04.091Z,13620.00
2019-05-19T10:08:03.705Z,14664.00
2019-05-19T10:09:03.718Z,13948.00
2019-05-19T10:10:03.731Z,13412.00
2019-05-19T10:11:03.746Z,11360.00
2019-05-19T10:12:03.757Z,18144.00
2019-05-19T10:13:03.844Z,20128.00
2019-05-19T10:14:03.783Z,21824.00
2019-05-19T10:15:03.830Z,21760.00
2019-05-19T10:16:03.809Z,21696.00
2019-05-19T10:17:03.824Z,21824.00
2019-05-19T10:18:03.837Z,21696.00
2019-05-19T10:19:03.858Z,21632.00
2019-05-19T10:20:03.862Z,21408.00
2019-05-19T10:21:03.876Z,21280.00
2019-05-19T10:22:03.887Z,20736.00
2019-05-19T10:23:03.950Z,20320.00
2019-05-19T10:24:03.914Z,20416.00
2019-05-19T10:25:20.336Z,20544.00
2019-05-19T10:26:03.944Z,17536.00
2019-05-19T10:27:03.957Z,16832.00
2019-05-19T10:28:03.971Z,14824.00
2019-05-19T10:29:03.982Z,14700.00
2019-05-19T10:30:03.996Z,16064.00
2019-05-19T10:31:04.015Z,21024.00
2019-05-19T10:32:04.025Z,21344.00
2019-05-19T10:33:04.037Z,23616.00
2019-05-19T10:34:04.050Z,25632.00
2019-05-19T10:35:04.065Z,27360.00
2019-05-19T10:36:04.080Z,32320.00
2019-05-19T10:37:04.107Z,36640.00
2019-05-19T10:38:04.106Z,39360.00
2019-05-19T10:39:04.122Z,42368.00
2019-05-19T10:40:04.135Z,44224.00
2019-05-19T10:41:04.148Z,40544.00
2019-05-19T10:42:04.165Z,26816.00
2019-05-19T10:43:04.178Z,19072.00
2019-05-19T10:44:04.190Z,13268.00
2019-05-19T10:45:04.206Z,11400.00
2019-05-19T10:46:04.222Z,10824.00
2019-05-19T10:47:04.233Z,9772.00
2019-05-19T10:48:04.245Z,8968.00
2019-05-19T10:49:04.262Z,8520.00
2019-05-19T10:50:04.272Z,8148.00
2019-05-19T10:51:04.293Z,8188.00
2019-05-19T10:52:04.298Z,8368.00
2019-05-19T10:53:04.311Z,9352.00
2019-05-19T10:54:04.325Z,9396.00
2019-05-19T10:55:04.339Z,8868.00
2019-05-19T10:56:04.347Z,8920.00
2019-05-19T10:57:04.363Z,8608.00
2019-05-19T10:58:04.370Z,9108.00
2019-05-19T10:59:07.008Z,9460.00
2019-05-19T11:00:04.394Z,9724.00
2019-05-19T11:01:04.405Z,9696.00
2019-05-19T11:02:04.416Z,10148.00
2019-05-19T11:03:04.426Z,11456.00
2019-05-19T11:04:04.437Z,13188.00
2019-05-19T11:05:04.448Z,14772.00
2019-05-19T11:06:04.523Z,15076.00
2019-05-19T11:07:04.468Z,15048.00
2019-05-19T11:08:04.479Z,14832.00
2019-05-19T11:09:04.489Z,14528.00
2019-05-19T11:10:04.499Z,13992.00
2019-05-19T11:11:04.510Z,13052.00
2019-05-19T11:12:04.519Z,11808.00
2019-05-19T11:13:04.530Z,10332.00
2019-05-19T11:14:04.541Z,9532.00
2019-05-19T11:15:04.548Z,9528.00
2019-05-19T11:16:04.561Z,9708.00
2019-05-19T11:17:04.569Z,11020.00
2019-05-19T11:18:06.460Z,10680.00
2019-05-19T11:19:04.593Z,9080.00
2019-05-19T11:20:04.599Z,9304.00
2019-05-19T11:21:04.609Z,11084.00
2019-05-19T11:22:04.620Z,12060.00
2019-05-19T11:23:04.630Z,11752.00
2019-05-19T11:24:04.642Z,11656.00
2019-05-19T11:25:04.648Z,11588.00
2019-05-19T11:26:04.659Z,11328.00
2019-05-19T11:27:04.668Z,11352.00
2019-05-19T11:28:04.677Z,11240.00
2019-05-19T11:29:04.689Z,11164.00
2019-05-19T11:30:04.695Z,11124.00
2019-05-19T11:31:04.708Z,10312.00
2019-05-19T11:32:04.714Z,10556.00
2019-05-19T11:33:04.725Z,10244.00
2019-05-19T11:34:04.733Z,11932.00
2019-05-19T11:35:04.742Z,12192.00
2019-05-19T11:36:04.751Z,12308.00
2019-05-19T11:37:07.288Z,12120.00
2019-05-19T11:38:04.767Z,12200.00
2019-05-19T11:39:04.776Z,11872.00
2019-05-19T11:40:04.786Z,11524.00
2019-05-19T11:41:04.793Z,11084.00
2019-05-19T11:42:04.805Z,10536.00
2019-05-19T11:43:04.811Z,10948.00
2019-05-19T11:44:04.827Z,11180.00
2019-05-19T11:45:04.829Z,11432.00
2019-05-19T11:46:04.835Z,11704.00
2019-05-19T11:47:04.845Z,11996.00
2019-05-19T11:48:04.856Z,12292.00
2019-05-19T11:49:04.866Z,12556.00
2019-05-19T11:50:04.870Z,12584.00
2019-05-19T11:51:04.880Z,12468.00
2019-05-19T11:52:04.887Z,12344.00
2019-05-19T11:53:04.896Z,12356.00
2019-05-19T11:54:04.905Z,12136.00
2019-05-19T11:55:04.912Z,11984.00
2019-05-19T11:56:07.359Z,12132.00
2019-05-19T11:57:04.930Z,11916.00
2019-05-19T11:58:04.937Z,12008.00
2019-05-19T11:59:04.946Z,11832.00
2019-05-19T12:00:48.287Z,11348.00
2019-05-19T12:01:48.295Z,11464.00
2019-05-19T12:04:31.643Z,10712.00
2019-05-19T12:05:31.666Z,8996.00
2019-05-19T12:06:39.600Z,9016.00
2019-05-19T12:07:31.668Z,9052.00
2019-05-19T12:08:31.676Z,9176.00
2019-05-19T12:09:31.684Z,9296.00
2019-05-19T12:10:31.692Z,9368.00
2019-05-19T12:11:32.710Z,9292.00
2019-05-19T12:12:32.112Z,9144.00
2019-05-19T12:13:34.781Z,8944.00
2019-05-19T12:14:31.729Z,8528.00
2019-05-19T12:15:31.733Z,8068.00
2019-05-19T12:16:31.739Z,7684.00
2019-05-19T12:17:31.748Z,7364.00
2019-05-19T12:18:31.758Z,7084.00